CheckWX is a tool to help pilots better visualize weather data.  It is not intended as a substitute for an official pre-flight weather briefing.

22:16:42 UTC

LCEN METAR
Ercan International Airport
Nicosia, Cyprus
Current

57 mins ago

LCEN 082120Z 26006KT 9999 FEW020 SCT100 11/09 Q1013 NOSIG RMK RWY11 27007KT
Observed
Apr-8 @ 21:20 UTC
Wind
  • 260° at 6 KTS
Visibility
10,000+ meters
Flight Rules
VFR
Cloud Levels
  • Few at 2,000' AGL
  • Scattered at 10,000' AGL
Temperature
11°C / 52°F
Dewpoint
C / 48°F
Humidity
88%
Altimeter
29.91" Hg
Pressure
1012.92 hPa
Previous

1 hour ago

LCEN 082050Z 25006KT 9999 FEW020 SCT100 12/10 Q1013 NOSIG RMK RWY11 25008KT
Observed
Apr-8 @ 20:50 UTC
Wind
  • 250° at 6 KTS
Visibility
10,000+ meters
Flight Rules
VFR
Cloud Levels
  • Few at 2,000' AGL
  • Scattered at 10,000' AGL
Temperature
12°C / 54°F
Dewpoint
10°C / 50°F
Humidity
88%
Altimeter
29.91" Hg
Pressure
1012.92 hPa
Previous

2 hours ago

LCEN 082020Z 24007KT 9999 FEW020 SCT100 11/10 Q1014 NOSIG RMK RWY11 24004KT
Observed
Apr-8 @ 20:20 UTC
Wind
  • 240° at 7 KTS
Visibility
10,000+ meters
Flight Rules
VFR
Cloud Levels
  • Few at 2,000' AGL
  • Scattered at 10,000' AGL
Temperature
11°C / 52°F
Dewpoint
10°C / 50°F
Humidity
94%
Altimeter
29.94" Hg
Pressure
1013.92 hPa